createdAt,value
2022-11-29T00:01:57.119Z,4.71
2022-11-29T00:04:26.028Z,4.70
2022-11-29T00:06:55.000Z,4.69
2022-11-29T00:09:23.638Z,4.68
2022-11-29T00:12:11.258Z,4.69
2022-11-29T00:14:41.231Z,4.71
2022-11-29T00:17:09.979Z,4.73
2022-11-29T00:19:38.966Z,4.74
2022-11-29T00:22:07.905Z,4.77
2022-11-29T00:24:37.072Z,4.78
2022-11-29T00:27:05.753Z,4.78
2022-11-29T00:29:35.084Z,4.77
2022-11-29T00:32:04.190Z,4.75
2022-11-29T00:34:33.253Z,4.74
2022-11-29T00:37:02.201Z,4.72
2022-11-29T00:39:31.302Z,4.73
2022-11-29T00:42:00.197Z,4.74
2022-11-29T00:44:29.461Z,4.77
2022-11-29T00:46:58.231Z,4.78
2022-11-29T00:49:27.075Z,4.79
2022-11-29T00:51:55.693Z,4.78
2022-11-29T00:54:25.252Z,4.77
2022-11-29T00:56:54.150Z,4.75
2022-11-29T00:59:22.742Z,4.74
2022-11-29T01:01:51.757Z,4.73
2022-11-29T01:04:21.168Z,4.74
2022-11-29T01:06:53.627Z,4.76
2022-11-29T01:09:23.198Z,4.78
2022-11-29T01:11:51.863Z,4.80
2022-11-29T01:14:20.467Z,4.79
2022-11-29T01:16:49.803Z,4.78
2022-11-29T01:19:18.417Z,4.77
2022-11-29T01:21:47.010Z,4.75
2022-11-29T01:24:16.619Z,4.73
2022-11-29T01:26:45.268Z,4.71
2022-11-29T01:29:13.970Z,4.71
2022-11-29T01:31:43.702Z,4.70
2022-11-29T01:34:12.472Z,4.71
2022-11-29T01:36:41.077Z,4.72
2022-11-29T01:39:11.103Z,4.72
2022-11-29T01:41:39.937Z,4.71
2022-11-29T01:44:14.987Z,4.69
2022-11-29T01:46:46.086Z,4.65
2022-11-29T01:49:39.936Z,4.64
2022-11-29T01:52:14.225Z,4.63
2022-11-29T01:54:47.676Z,4.63
2022-11-29T01:57:18.731Z,4.63
2022-11-29T01:59:51.486Z,4.64
2022-11-29T02:02:35.889Z,4.65
2022-11-29T02:05:05.760Z,4.64
2022-11-29T02:07:34.927Z,4.64
2022-11-29T02:10:04.895Z,4.61
2022-11-29T02:12:36.720Z,4.60
2022-11-29T02:15:11.099Z,4.58
2022-11-29T02:17:45.816Z,4.57
2022-11-29T02:20:33.012Z,4.58
2022-11-29T02:23:32.622Z,4.60
2022-11-29T02:26:16.629Z,4.62
2022-11-29T02:29:07.526Z,4.62
2022-11-29T02:32:07.222Z,4.62
2022-11-29T02:34:58.838Z,4.59
2022-11-29T02:37:36.825Z,4.57
2022-11-29T02:40:14.250Z,4.56
2022-11-29T02:43:13.479Z,4.56
2022-11-29T02:46:01.074Z,4.57
2022-11-29T02:49:01.154Z,4.61
2022-11-29T02:51:46.237Z,4.61
2022-11-29T02:54:37.037Z,4.62
2022-11-29T02:57:26.832Z,4.61
2022-11-29T02:59:55.820Z,4.58
2022-11-29T03:02:49.913Z,4.57
2022-11-29T03:05:19.558Z,4.57
2022-11-29T03:08:11.121Z,4.57
2022-11-29T03:11:03.826Z,4.59
2022-11-29T03:13:38.920Z,4.61
2022-11-29T03:16:23.097Z,4.63
2022-11-29T03:19:20.115Z,4.62
2022-11-29T03:22:13.263Z,4.61
2022-11-29T03:24:56.463Z,4.58
2022-11-29T03:27:41.539Z,4.58
2022-11-29T03:30:14.570Z,4.57
2022-11-29T03:32:55.632Z,4.58
2022-11-29T03:36:02.232Z,4.60
2022-11-29T03:38:41.472Z,4.61
2022-11-29T03:41:38.611Z,4.61
2022-11-29T03:44:16.393Z,4.59
2022-11-29T03:46:53.494Z,4.57
2022-11-29T03:49:46.061Z,4.55
2022-11-29T03:52:34.699Z,4.54
2022-11-29T03:55:20.627Z,4.55
2022-11-29T03:58:12.218Z,4.56
2022-11-29T04:01:09.655Z,4.59
2022-11-29T04:04:16.359Z,4.61
2022-11-29T04:07:01.356Z,4.62
2022-11-29T04:10:09.775Z,4.61
2022-11-29T04:13:17.878Z,4.58
2022-11-29T04:16:14.506Z,4.56
2022-11-29T04:19:08.623Z,4.56
2022-11-29T04:21:49.318Z,4.55
2022-11-29T04:24:43.503Z,4.58
2022-11-29T04:27:31.512Z,4.60
2022-11-29T04:30:25.584Z,4.59
2022-11-29T04:33:16.361Z,4.57
2022-11-29T04:35:54.279Z,4.54
2022-11-29T04:38:31.076Z,4.54
2022-11-29T04:42:08.030Z,4.53
2022-11-29T04:44:48.796Z,4.54
2022-11-29T04:47:31.944Z,4.55
2022-11-29T04:50:45.771Z,4.57
2022-11-29T04:53:33.724Z,4.59
2022-11-29T04:56:25.953Z,4.59
2022-11-29T04:59:10.029Z,4.57
2022-11-29T05:01:47.942Z,4.55
2022-11-29T05:04:16.879Z,4.52
2022-11-29T05:07:09.698Z,4.51
2022-11-29T05:09:56.344Z,4.49
2022-11-29T05:12:43.399Z,4.50
2022-11-29T05:15:53.497Z,4.50
2022-11-29T05:19:03.999Z,4.51
2022-11-29T05:21:48.259Z,4.51
2022-11-29T05:24:28.550Z,4.49
2022-11-29T05:27:12.878Z,4.47
2022-11-29T05:30:00.169Z,4.46
2022-11-29T05:33:07.799Z,4.47
2022-11-29T05:36:08.556Z,4.47
2022-11-29T05:39:11.732Z,4.49
2022-11-29T05:41:52.986Z,4.50
2022-11-29T05:44:37.572Z,4.51
2022-11-29T05:47:10.638Z,4.50
2022-11-29T05:50:07.230Z,4.47
2022-11-29T05:52:58.399Z,4.44
2022-11-29T05:55:55.983Z,4.40
2022-11-29T05:58:50.974Z,4.37
2022-11-29T06:01:28.864Z,4.36
2022-11-29T06:04:09.120Z,4.36
2022-11-29T06:06:55.699Z,4.36
2022-11-29T06:09:31.433Z,4.38
2022-11-29T06:12:24.474Z,4.38
2022-11-29T06:15:02.555Z,4.36
2022-11-29T06:17:38.855Z,4.34
2022-11-29T06:20:41.553Z,4.33
2022-11-29T06:23:31.518Z,4.33
2022-11-29T06:26:04.982Z,4.34
2022-11-29T06:29:20.555Z,4.37
2022-11-29T06:31:58.068Z,4.41
2022-11-29T06:34:47.597Z,4.44
2022-11-29T06:37:37.944Z,4.44
2022-11-29T06:40:11.100Z,4.45
2022-11-29T06:42:39.930Z,4.44
2022-11-29T06:45:14.155Z,4.44
2022-11-29T06:48:03.298Z,4.44
2022-11-29T06:50:47.945Z,4.45
2022-11-29T06:53:51.250Z,4.48
2022-11-29T06:56:29.306Z,4.53
2022-11-29T06:59:25.952Z,4.57
2022-11-29T07:01:59.975Z,4.60
2022-11-29T07:04:49.671Z,4.63
2022-11-29T07:07:22.049Z,4.65
2022-11-29T07:09:54.699Z,4.67
2022-11-29T07:12:24.767Z,4.70
2022-11-29T07:14:53.664Z,4.73
2022-11-29T07:18:00.334Z,4.78
2022-11-29T07:20:59.617Z,4.84
2022-11-29T07:23:35.432Z,4.90
2022-11-29T07:26:32.142Z,4.93
2022-11-29T07:29:20.895Z,4.95
2022-11-29T07:32:03.548Z,4.95
2022-11-29T07:34:49.304Z,4.94
2022-11-29T07:37:30.841Z,4.95
2022-11-29T07:40:05.752Z,4.98
2022-11-29T07:42:50.040Z,5.00
2022-11-29T07:45:28.548Z,5.05
2022-11-29T07:47:57.917Z,5.10
2022-11-29T07:50:28.197Z,5.13
2022-11-29T07:52:58.445Z,5.16
2022-11-29T07:55:27.553Z,5.19
2022-11-29T07:58:09.109Z,5.20
2022-11-29T08:01:01.350Z,5.22
2022-11-29T08:03:51.755Z,5.26
2022-11-29T08:06:41.622Z,5.34
2022-11-29T08:09:40.331Z,5.41
2022-11-29T08:12:30.263Z,5.47
2022-11-29T08:15:22.153Z,5.53
2022-11-29T08:21:28.940Z,5.62
2022-11-29T08:24:24.861Z,5.65
2022-11-29T08:27:19.340Z,5.65
2022-11-29T08:30:24.216Z,5.67
2022-11-29T08:33:22.028Z,5.72
2022-11-29T08:36:25.614Z,5.79
2022-11-29T08:39:13.782Z,5.85
2022-11-29T08:42:01.313Z,5.88
2022-11-29T08:44:40.323Z,5.92
2022-11-29T08:47:38.896Z,5.99
2022-11-29T08:50:25.453Z,6.00
2022-11-29T08:53:17.349Z,6.01
2022-11-29T08:55:47.050Z,6.03
2022-11-29T08:58:16.560Z,6.04
2022-11-29T09:00:47.340Z,6.04
2022-11-29T09:03:35.098Z,6.08
2022-11-29T09:06:14.770Z,6.10
2022-11-29T09:08:44.749Z,6.14
2022-11-29T09:11:17.170Z,6.15
2022-11-29T09:13:49.584Z,6.15
2022-11-29T09:16:22.204Z,6.10
2022-11-29T09:18:53.694Z,6.05
2022-11-29T09:21:25.247Z,6.05
2022-11-29T09:23:59.520Z,6.09
2022-11-29T09:26:31.114Z,6.13
2022-11-29T09:29:01.708Z,6.20
2022-11-29T09:31:31.516Z,6.22
2022-11-29T09:34:00.363Z,6.24
2022-11-29T09:36:31.263Z,6.23
2022-11-29T10:27:24.411Z,6.60
2022-11-29T10:29:53.810Z,6.72
2022-11-29T10:32:25.752Z,6.69
2022-11-29T10:34:57.825Z,6.69
2022-11-29T10:37:27.286Z,6.72
2022-11-29T10:40:04.727Z,6.77
2022-11-29T10:42:52.141Z,6.81
2022-11-29T10:45:27.513Z,6.85
2022-11-29T10:48:02.679Z,6.87
2022-11-29T10:50:35.848Z,6.91
2022-11-29T10:53:08.767Z,6.92
2022-11-29T10:55:50.630Z,6.94
2022-11-29T10:58:28.250Z,6.96
2022-11-29T11:01:09.737Z,6.92
2022-11-29T11:03:53.110Z,6.87
2022-11-29T11:06:25.599Z,6.84
2022-11-29T11:09:13.124Z,6.81
2022-11-29T11:11:50.265Z,6.78
2022-11-29T11:14:23.270Z,6.81
2022-11-29T11:16:52.448Z,6.84
2022-11-29T11:19:30.730Z,6.87
2022-11-29T11:22:02.498Z,6.89
2022-11-29T11:24:34.450Z,6.91
2022-11-29T11:27:04.375Z,6.93
2022-11-29T11:29:44.690Z,6.90
2022-11-29T11:32:18.910Z,6.84
2022-11-29T11:34:56.784Z,6.80
2022-11-29T11:37:28.508Z,6.78
2022-11-29T11:40:19.138Z,6.72
2022-11-29T11:42:47.993Z,6.60
2022-11-29T11:45:16.654Z,6.54
2022-11-29T11:47:49.565Z,6.54
2022-11-29T11:50:28.277Z,6.56
2022-11-29T11:53:18.699Z,6.60
2022-11-29T11:55:57.484Z,6.67
2022-11-29T11:58:45.408Z,6.72
2022-11-29T12:01:31.329Z,6.70
2022-11-29T12:04:06.352Z,6.73
2022-11-29T12:06:48.129Z,6.75
2022-11-29T12:09:39.926Z,6.77
2022-11-29T12:12:20.696Z,6.76
2022-11-29T12:14:58.574Z,6.70
2022-11-29T12:17:27.796Z,6.66
2022-11-29T12:20:03.116Z,6.65
2022-11-29T12:23:05.937Z,6.61
2022-11-29T12:26:13.759Z,6.56
2022-11-29T12:37:36.031Z,6.43
2022-11-29T12:40:10.761Z,6.40
2022-11-29T12:42:51.721Z,6.36
2022-11-29T12:45:26.294Z,6.32
2022-11-29T12:48:34.152Z,6.27
2022-11-29T12:51:40.990Z,6.22
2022-11-29T12:54:29.511Z,6.16
2022-11-29T12:57:16.249Z,6.09
2022-11-29T13:00:11.295Z,6.03
2022-11-29T13:02:50.849Z,6.02
2022-11-29T13:06:03.431Z,6.00
2022-11-29T13:09:03.731Z,5.99
2022-11-29T13:11:36.713Z,5.99
2022-11-29T13:14:42.542Z,5.99
2022-11-29T13:17:41.303Z,5.99
2022-11-29T13:20:38.035Z,5.97
2022-11-29T13:23:45.688Z,5.93
2022-11-29T13:26:18.132Z,5.89
2022-11-29T13:28:49.147Z,5.86
2022-11-29T13:31:21.172Z,5.85
2022-11-29T13:33:50.498Z,5.87
2022-11-29T13:36:33.307Z,5.90
2022-11-29T13:39:28.937Z,5.91
2022-11-29T13:41:57.807Z,5.90
2022-11-29T13:44:40.865Z,5.90
2022-11-29T13:47:12.569Z,5.87
2022-11-29T13:49:55.429Z,5.88
2022-11-29T13:52:30.658Z,5.89
2022-11-29T13:55:28.858Z,5.88
2022-11-29T13:58:18.145Z,5.84
2022-11-29T14:00:52.456Z,5.81
2022-11-29T14:03:24.566Z,5.79
2022-11-29T14:06:04.420Z,5.78
2022-11-29T14:09:17.778Z,5.77
2022-11-29T14:12:01.869Z,5.77
2022-11-29T14:14:42.247Z,5.77
2022-11-29T14:17:49.516Z,5.75
2022-11-29T14:20:23.951Z,5.73
2022-11-29T14:23:05.129Z,5.70
2022-11-29T14:25:57.795Z,5.66
2022-11-29T14:28:35.704Z,5.61
2022-11-29T14:31:10.039Z,5.56
2022-11-29T14:33:56.388Z,5.53
2022-11-29T14:37:10.548Z,5.50
2022-11-29T14:39:48.572Z,5.45
2022-11-29T14:42:21.932Z,5.41
2022-11-29T14:44:58.735Z,5.38
2022-11-29T14:47:32.277Z,5.34
2022-11-29T14:50:05.818Z,5.30
2022-11-29T14:52:39.881Z,5.26
2022-11-29T14:55:29.226Z,5.23
2022-11-29T14:57:57.823Z,5.20
2022-11-29T15:00:47.809Z,5.19
2022-11-29T15:03:17.389Z,5.19
2022-11-29T15:05:57.871Z,5.18
2022-11-29T15:08:35.472Z,5.16
2022-11-29T15:11:33.422Z,5.12
2022-11-29T15:14:29.369Z,5.08
2022-11-29T15:17:32.857Z,5.04
2022-11-29T15:20:26.859Z,4.97
2022-11-29T15:23:00.005Z,4.92
2022-11-29T15:26:04.158Z,4.90
2022-11-29T15:28:33.214Z,4.90
2022-11-29T15:31:12.054Z,4.89
2022-11-29T15:33:44.407Z,4.86
2022-11-29T15:36:24.753Z,4.81
2022-11-29T15:38:57.092Z,4.75
2022-11-29T15:41:35.850Z,4.69
2022-11-29T15:44:07.280Z,4.62
2022-11-29T15:46:36.767Z,4.59
2022-11-29T15:49:24.701Z,4.57
2022-11-29T15:52:11.244Z,4.55
2022-11-29T15:54:48.409Z,4.53
2022-11-29T15:57:39.087Z,4.52
2022-11-29T16:00:15.708Z,4.50
2022-11-29T16:03:05.803Z,4.49
2022-11-29T16:05:37.929Z,4.45
2022-11-29T16:08:19.945Z,4.43
2022-11-29T16:10:53.223Z,4.40
2022-11-29T16:13:40.681Z,4.37
2022-11-29T16:16:22.309Z,4.35
2022-11-29T16:18:51.860Z,4.36
2022-11-29T16:21:32.090Z,4.36
2022-11-29T16:24:10.786Z,4.38
2022-11-29T16:26:43.863Z,4.39
2022-11-29T16:29:32.096Z,4.39
2022-11-29T16:32:15.334Z,4.37
2022-11-29T16:34:45.501Z,4.34
2022-11-29T16:37:22.598Z,4.31
2022-11-29T16:39:57.120Z,4.30
2022-11-29T16:42:30.847Z,4.30
2022-11-29T16:45:07.659Z,4.30
2022-11-29T16:48:01.869Z,4.31
2022-11-29T16:50:34.044Z,4.32
2022-11-29T16:53:36.162Z,4.33
2022-11-29T16:56:06.051Z,4.34
2022-11-29T16:58:40.149Z,4.33
2022-11-29T17:01:19.653Z,4.32
2022-11-29T17:03:48.752Z,4.30
2022-11-29T17:06:21.887Z,4.26
2022-11-29T17:08:56.703Z,4.25
2022-11-29T17:11:26.474Z,4.23
2022-11-29T17:13:56.539Z,4.23
2022-11-29T17:16:25.415Z,4.26
2022-11-29T17:18:54.243Z,4.29
2022-11-29T17:21:27.805Z,4.33
2022-11-29T17:23:57.232Z,4.35
2022-11-29T17:26:31.040Z,4.34
2022-11-29T17:29:00.183Z,4.32
2022-11-29T17:31:29.970Z,4.30
2022-11-29T17:34:02.499Z,4.28
2022-11-29T17:36:31.741Z,4.26
2022-11-29T17:39:01.067Z,4.23
2022-11-29T17:41:29.932Z,4.22
2022-11-29T17:43:59.615Z,4.20
2022-11-29T17:46:31.148Z,4.21
2022-11-29T17:49:01.940Z,4.22
2022-11-29T17:54:23.775Z,4.24
2022-11-29T17:56:52.582Z,4.24
2022-11-29T17:59:21.238Z,4.22
2022-11-29T18:01:50.225Z,4.20
2022-11-29T18:04:39.295Z,4.18
2022-11-29T18:07:28.405Z,4.16
2022-11-29T18:10:22.344Z,4.14
2022-11-29T18:13:14.490Z,4.14
2022-11-29T18:16:21.010Z,4.16
2022-11-29T18:19:26.078Z,4.16
2022-11-29T18:22:16.166Z,4.10
2022-11-29T18:25:38.040Z,4.08
2022-11-29T18:28:31.631Z,4.06
2022-11-29T18:31:28.959Z,4.06
2022-11-29T18:34:23.276Z,4.05
2022-11-29T18:37:28.273Z,3.97
2022-11-29T18:40:33.176Z,3.91
2022-11-29T18:43:29.751Z,3.88
2022-11-29T18:45:59.426Z,3.86
2022-11-29T18:48:34.369Z,3.85
2022-11-29T18:51:05.610Z,3.87
2022-11-29T18:53:35.603Z,3.88
2022-11-29T18:56:14.184Z,3.90
2022-11-29T18:58:47.650Z,3.91
2022-11-29T19:01:18.895Z,3.90
2022-11-29T19:03:53.252Z,3.89
2022-11-29T19:06:24.959Z,3.89
2022-11-29T19:08:53.955Z,3.90
2022-11-29T19:11:24.306Z,3.90
2022-11-29T19:14:02.298Z,3.91
2022-11-29T19:16:33.882Z,3.94
2022-11-29T19:19:02.998Z,3.99
2022-11-29T19:21:34.768Z,4.08
2022-11-29T19:24:08.284Z,4.14
2022-11-29T19:26:37.408Z,4.18
2022-11-29T19:29:06.047Z,4.20
2022-11-29T19:31:34.736Z,4.20
2022-11-29T19:34:03.864Z,4.20
2022-11-29T19:36:33.422Z,4.19
2022-11-29T19:39:03.046Z,4.18
2022-11-29T19:41:34.352Z,4.14
2022-11-29T19:44:08.433Z,4.07
2022-11-29T19:46:40.698Z,4.04
2022-11-29T19:49:10.251Z,4.02
2022-11-29T19:51:39.852Z,4.01
2022-11-29T19:54:10.542Z,4.01
2022-11-29T19:56:39.660Z,4.05
2022-11-29T19:59:09.284Z,4.07
2022-11-29T20:01:42.305Z,4.05
2022-11-29T20:04:17.087Z,4.05
2022-11-29T20:06:48.173Z,4.05
2022-11-29T20:09:18.186Z,4.00
2022-11-29T20:11:46.745Z,3.99
2022-11-29T20:14:15.573Z,3.97
2022-11-29T20:16:45.105Z,3.95
2022-11-29T20:19:16.523Z,3.92
2022-11-29T20:21:49.365Z,3.88
2022-11-29T20:24:19.814Z,3.84
2022-11-29T20:26:49.417Z,3.84
2022-11-29T20:29:19.810Z,3.85
2022-11-29T20:31:51.007Z,3.87
2022-11-29T20:34:21.330Z,3.91
2022-11-29T20:37:02.402Z,3.89
2022-11-29T20:39:43.022Z,3.86
2022-11-29T20:42:41.719Z,3.82
2022-11-29T20:45:14.663Z,3.78
2022-11-29T20:48:17.471Z,3.73
2022-11-29T20:50:59.844Z,3.68
2022-11-29T20:53:33.667Z,3.65
2022-11-29T20:56:04.207Z,3.63
2022-11-29T20:58:33.334Z,3.62
2022-11-29T21:01:02.872Z,3.65
2022-11-29T21:03:32.290Z,3.68
2022-11-29T21:06:05.649Z,3.70
2022-11-29T21:08:35.193Z,3.72
2022-11-29T21:11:07.847Z,3.75
2022-11-29T21:13:38.006Z,3.78
2022-11-29T21:16:07.357Z,3.77
2022-11-29T21:18:36.296Z,3.76
2022-11-29T21:21:17.072Z,3.78
2022-11-29T21:24:01.325Z,3.76
2022-11-29T21:26:42.189Z,3.76
2022-11-29T21:29:18.119Z,3.72
2022-11-29T21:31:49.317Z,3.67
2022-11-29T21:34:18.051Z,3.66
2022-11-29T21:36:56.286Z,3.68
2022-11-29T21:39:32.835Z,3.68
2022-11-29T21:42:02.088Z,3.71
2022-11-29T21:44:31.064Z,3.73
2022-11-29T21:47:00.092Z,3.73
2022-11-29T21:49:28.770Z,3.73
2022-11-29T21:52:01.562Z,3.71
2022-11-29T21:54:31.003Z,3.67
2022-11-29T21:57:02.031Z,3.63
2022-11-29T21:59:30.792Z,3.58
2022-11-29T22:02:00.384Z,3.54
2022-11-29T22:04:29.540Z,3.53
2022-11-29T22:06:58.104Z,3.54
2022-11-29T22:09:27.449Z,3.55
2022-11-29T22:11:56.753Z,3.56
2022-11-29T22:14:25.339Z,3.57
2022-11-29T22:16:59.130Z,3.55
2022-11-29T22:19:30.839Z,3.59
2022-11-29T22:22:06.644Z,3.59
2022-11-29T22:24:37.120Z,3.53
2022-11-29T22:27:06.002Z,3.47
2022-11-29T22:29:34.880Z,3.43
2022-11-29T22:32:04.177Z,3.38
2022-11-29T22:34:32.799Z,3.36
2022-11-29T22:37:01.548Z,3.38
2022-11-29T22:39:30.618Z,3.37
2022-11-29T22:41:59.180Z,3.41
2022-11-29T22:44:27.799Z,3.46
2022-11-29T22:46:56.808Z,3.51
2022-11-29T22:49:25.495Z,3.56
2022-11-29T22:51:54.953Z,3.62
2022-11-29T22:54:23.910Z,3.60
2022-11-29T22:56:52.785Z,3.59
2022-11-29T22:59:21.603Z,3.57
2022-11-29T23:01:50.575Z,3.56
2022-11-29T23:04:19.912Z,3.50
2022-11-29T23:06:48.523Z,3.44
2022-11-29T23:09:22.691Z,3.36
2022-11-29T23:11:56.651Z,3.31
2022-11-29T23:14:25.791Z,3.26
2022-11-29T23:16:54.599Z,3.24
2022-11-29T23:19:23.272Z,3.20
2022-11-29T23:21:52.319Z,3.17
2022-11-29T23:24:20.929Z,3.18
2022-11-29T23:26:50.440Z,3.19
2022-11-29T23:29:20.248Z,3.18
2022-11-29T23:31:50.295Z,3.16
2022-11-29T23:34:20.252Z,3.16
2022-11-29T23:36:52.970Z,3.17
2022-11-29T23:39:22.366Z,3.14
2022-11-29T23:41:51.335Z,3.08
2022-11-29T23:44:19.956Z,3.03
2022-11-29T23:46:48.693Z,3.04
2022-11-29T23:49:17.515Z,3.11
2022-11-29T23:51:46.136Z,3.13
2022-11-29T23:54:14.748Z,3.16
2022-11-29T23:56:43.814Z,3.21
2022-11-29T23:59:12.439Z,3.20
